Ana Sayfa
METAR-TAF:

METAR-TAF

Havaalanları :

Erbil Havalimanı

Erbil, Irak

Enlem: 36-14-15N, Boylam: 43-57-47E, yükseklik: 415 m

Güncel hava durumu gözlemi

Rapor saat 04:00 UTC de 54 dakika önce yapıldı.
Rüzgar kuzeydoğudan 4 kt
Sıcaklık 30°C
Nem 27%
Basınç 1003 hPa
Görüş mesafesi: 8000 m

METAR: ORER 150400Z 04004KT 8000 30/09 Q1003 NOSIG

Saat: 07:54 (04:54 UTC)

Tahmin

Rapor saat 22:00 UTC de 6 saat ve 54 dakika önce yapıldı.
Ayın 15'si saat 00 UTC'den ayın 15'si saat 24 UTC'ye kadar geçerli Tahmin
Rüzgar değişken yönden 3 kt
Görüş mesafesi: 8000 m

TAF: ORER 142200Z 1500/1524 VRB03KT 8000 NSC

4.000'den fazla havaalanı için hava durumu gözlemleri ve tahminleri (METAR ve TAF raporları).

Kullanılabilir istasyonlar harita üzerinde sarı ve kırmızı noktalarla gösterilir.

İstasyonun adını görmek için fareyi noktanın üzerinde gezdirin.

Sonrasında hava gözlem ve tahminlerini görmek için tıklayın.

Haritayı değiştirmek için: yaklaştırmak için siyah artı işaretli yeşil düğmeye ve uzaklaştırmak için de eksi işaretli düğmeye hızla tıklayın; bitişik haritalar için yeşil okları kullanın.


METAR-TAF: